罗盘
风向 的 风向 260° Albi-Le Séquestre Airport 9/27
风: 13 kt, 4 beaufort

13 kt

2 kt
改变
0 1.000 2.000 3.000 4.000 5.000
CAVOK
METAR LFCK 181900Z AUTO 26013KT CAVOK 22/15 Q1017 NOSIG

METAR Albi-Le Séquestre Airport - LFCI/LBI

Albi-Le Séquestre Airport是Albi/Le Séquestre,法国中的中型机场。 该机场有一条跑道: 9/27. 该领域的国际民航组织标志是LFCI 它的国际航空运输协会代码是LBI.

这份报告是针对2022年8月18日 21:00, 当地时间在Castres-Mazamet Airport进行的。

机场观察

风向为260°,速度为13 kt。

天气为CAVOK。这意味着在5.000 ft或MSA(最低安全高度)以下(以较高者为准)以下没有云。这也意味着没有观测到积雨云或高耸的积云,可见度为10 km 或者更多或更高。此外,不会有雾,降雨或其他重要天气。

温度和风寒是22 °C。 露点为15 °C,相对湿度为65%。 海平面上的气压为1017 hPa (QNH)。

白天

今天,太阳从06:59升起,在20:51降落。 这适用于Albi-Le Séquestre Airport,世界夏令时可能有所不同。 当地时间与世界标准时间之间的时差为+2 小时。 夏令时目前正在进行中。

公司介绍

在这个机场,你可以找到飞行俱乐部 和 跳伞中心。 这个机场上的公司有Aéroclub d'Albi 和 Fun Parachutisme, Albi。

体会

到Vliegles.nl去找飞行课程,跳伞和其他飞行体验。 浏览页面,了解Albi-Le Séquestre Airport附近所有可用的活动。 你也可以使用搜索功能来寻找你所在地附近的特定飞行课程、跳伞或其他飞行体验。

跑道

Id 标题 侧风 逆风 侧风 %
9/27 090°-270° 2 kt 13 kt 17 %

逆风成分最大的方向会被突出显示,并用于横风计算。 这并不一定意味着这个方向在使用。

温度 & 天气

温度 22 °C
露点 15 °C
相对湿度 65%
Kp-index 1  

白天

日出
06:59
中午
13:54
日落
20:50

小工具

你想在你的网站上有一个关于Albi-Le Séquestre Airport的当前航空天气(METAR)的小部件吗?

</> 显示HTML代码

我们和第三方通过cookies跟踪您在我们网站上的上网行为。如果您继续,我们认为您同意我们的cookie政策。 了解更多